sensor_id;sensor_type;location;lat;lon;timestamp;P1;durP1;ratioP1;P2;durP2;ratioP2
6955;SDS011;50345;51.136;16.886;2022-09-01T00:01:32;3.42;;;3.03;;
6955;SDS011;50345;51.136;16.886;2022-09-01T00:03:58;3.65;;;3.25;;
6955;SDS011;50345;51.136;16.886;2022-09-01T00:06:28;3.40;;;3.00;;
6955;SDS011;50345;51.136;16.886;2022-09-01T00:08:56;6.25;;;2.55;;
6955;SDS011;50345;51.136;16.886;2022-09-01T00:11:23;4.03;;;3.30;;
6955;SDS011;50345;51.136;16.886;2022-09-01T00:13:50;3.72;;;3.38;;
6955;SDS011;50345;51.136;16.886;2022-09-01T00:16:18;2.95;;;2.65;;
6955;SDS011;50345;51.136;16.886;2022-09-01T00:18:45;6.38;;;3.10;;
6955;SDS011;50345;51.136;16.886;2022-09-01T00:21:13;3.00;;;2.80;;
6955;SDS011;50345;51.136;16.886;2022-09-01T00:23:40;6.35;;;3.90;;
6955;SDS011;50345;51.136;16.886;2022-09-01T00:26:06;5.07;;;3.50;;
6955;SDS011;50345;51.136;16.886;2022-09-01T00:28:32;4.22;;;2.90;;
6955;SDS011;50345;51.136;16.886;2022-09-01T00:30:58;8.48;;;3.25;;
6955;SDS011;50345;51.136;16.886;2022-09-01T00:33:25;4.45;;;3.20;;
6955;SDS011;50345;51.136;16.886;2022-09-01T00:35:51;3.00;;;2.70;;
6955;SDS011;50345;51.136;16.886;2022-09-01T00:38:17;3.33;;;3.13;;
6955;SDS011;50345;51.136;16.886;2022-09-01T00:40:43;4.20;;;3.45;;
6955;SDS011;50345;51.136;16.886;2022-09-01T00:43:10;3.50;;;3.20;;
6955;SDS011;50345;51.136;16.886;2022-09-01T00:45:36;3.55;;;3.08;;
6955;SDS011;50345;51.136;16.886;2022-09-01T00:48:02;4.28;;;3.33;;
6955;SDS011;50345;51.136;16.886;2022-09-01T00:50:29;3.17;;;2.50;;
6955;SDS011;50345;51.136;16.886;2022-09-01T00:52:56;5.65;;;2.72;;
6955;SDS011;50345;51.136;16.886;2022-09-01T00:55:26;6.93;;;3.13;;
6955;SDS011;50345;51.136;16.886;2022-09-01T00:57:53;3.08;;;2.78;;
6955;SDS011;50345;51.136;16.886;2022-09-01T01:00:21;3.55;;;3.25;;
6955;SDS011;50345;51.136;16.886;2022-09-01T01:02:48;3.25;;;2.75;;
6955;SDS011;50345;51.136;16.886;2022-09-01T01:05:20;3.10;;;2.90;;
6955;SDS011;50345;51.136;16.886;2022-09-01T01:07:47;3.65;;;3.35;;
6955;SDS011;50345;51.136;16.886;2022-09-01T01:10:15;5.70;;;3.25;;
6955;SDS011;50345;51.136;16.886;2022-09-01T01:12:42;3.95;;;3.28;;
6955;SDS011;50345;51.136;16.886;2022-09-01T01:15:12;3.40;;;3.10;;
6955;SDS011;50345;51.136;16.886;2022-09-01T01:17:38;12.98;;;4.00;;
6955;SDS011;50345;51.136;16.886;2022-09-01T01:20:05;4.20;;;3.35;;
6955;SDS011;50345;51.136;16.886;2022-09-01T01:23:11;3.85;;;3.20;;
6955;SDS011;50345;51.136;16.886;2022-09-01T01:25:44;3.65;;;2.95;;
6955;SDS011;50345;51.136;16.886;2022-09-01T01:28:19;6.72;;;2.67;;
6955;SDS011;50345;51.136;16.886;2022-09-01T01:30:56;3.28;;;2.97;;
6955;SDS011;50345;51.136;16.886;2022-09-01T01:33:27;3.45;;;3.15;;
6955;SDS011;50345;51.136;16.886;2022-09-01T01:35:53;4.70;;;3.25;;
6955;SDS011;50345;51.136;16.886;2022-09-01T01:38:21;8.10;;;3.22;;
6955;SDS011;50345;51.136;16.886;2022-09-01T01:40:48;6.75;;;4.25;;
6955;SDS011;50345;51.136;16.886;2022-09-01T01:43:15;3.42;;;3.13;;
6955;SDS011;50345;51.136;16.886;2022-09-01T01:45:46;3.45;;;3.15;;
6955;SDS011;50345;51.136;16.886;2022-09-01T01:48:13;6.18;;;3.50;;
6955;SDS011;50345;51.136;16.886;2022-09-01T01:50:48;3.65;;;3.33;;
6955;SDS011;50345;51.136;16.886;2022-09-01T01:53:15;5.68;;;2.50;;
6955;SDS011;50345;51.136;16.886;2022-09-01T01:55:43;6.03;;;3.40;;
6955;SDS011;50345;51.136;16.886;2022-09-01T01:58:09;5.22;;;3.05;;
6955;SDS011;50345;51.136;16.886;2022-09-01T02:00:40;3.95;;;3.30;;
6955;SDS011;50345;51.136;16.886;2022-09-01T02:03:08;3.60;;;2.92;;
6955;SDS011;50345;51.136;16.886;2022-09-01T02:05:36;4.30;;;3.00;;
6955;SDS011;50345;51.136;16.886;2022-09-01T02:08:07;3.20;;;3.00;;
6955;SDS011;50345;51.136;16.886;2022-09-01T02:10:35;3.55;;;2.65;;
6955;SDS011;50345;51.136;16.886;2022-09-01T02:13:03;3.08;;;2.65;;
6955;SDS011;50345;51.136;16.886;2022-09-01T02:15:30;6.97;;;3.10;;
6955;SDS011;50345;51.136;16.886;2022-09-01T02:17:59;3.42;;;2.92;;
6955;SDS011;50345;51.136;16.886;2022-09-01T02:20:25;2.63;;;2.42;;
6955;SDS011;50345;51.136;16.886;2022-09-01T02:22:56;4.45;;;3.45;;
6955;SDS011;50345;51.136;16.886;2022-09-01T02:25:33;3.70;;;3.40;;
6955;SDS011;50345;51.136;16.886;2022-09-01T02:27:59;5.13;;;2.65;;
6955;SDS011;50345;51.136;16.886;2022-09-01T02:30:27;4.15;;;3.40;;
6955;SDS011;50345;51.136;16.886;2022-09-01T02:32:56;3.83;;;2.88;;
6955;SDS011;50345;51.136;16.886;2022-09-01T02:35:23;3.05;;;2.65;;
6955;SDS011;50345;51.136;16.886;2022-09-01T02:37:52;4.70;;;3.38;;
6955;SDS011;50345;51.136;16.886;2022-09-01T02:40:22;3.42;;;2.70;;
6955;SDS011;50345;51.136;16.886;2022-09-01T02:42:48;4.78;;;3.60;;
6955;SDS011;50345;51.136;16.886;2022-09-01T02:45:17;3.53;;;3.20;;
6955;SDS011;50345;51.136;16.886;2022-09-01T02:47:44;6.72;;;3.47;;
6955;SDS011;50345;51.136;16.886;2022-09-01T02:50:12;3.50;;;2.80;;
6955;SDS011;50345;51.136;16.886;2022-09-01T02:52:41;3.38;;;2.85;;
6955;SDS011;50345;51.136;16.886;2022-09-01T02:55:07;3.05;;;2.80;;
6955;SDS011;50345;51.136;16.886;2022-09-01T02:57:34;3.63;;;2.92;;
6955;SDS011;50345;51.136;16.886;2022-09-01T03:00:00;3.75;;;2.42;;
6955;SDS011;50345;51.136;16.886;2022-09-01T03:02:26;4.78;;;2.92;;
6955;SDS011;50345;51.136;16.886;2022-09-01T03:04:52;3.20;;;2.88;;
6955;SDS011;50345;51.136;16.886;2022-09-01T03:07:19;4.20;;;2.35;;
6955;SDS011;50345;51.136;16.886;2022-09-01T03:09:48;5.07;;;2.55;;
6955;SDS011;50345;51.136;16.886;2022-09-01T03:12:14;6.80;;;3.05;;
6955;SDS011;50345;51.136;16.886;2022-09-01T03:14:40;5.90;;;3.00;;
6955;SDS011;50345;51.136;16.886;2022-09-01T03:17:06;3.75;;;3.15;;
6955;SDS011;50345;51.136;16.886;2022-09-01T03:19:32;4.32;;;3.45;;
6955;SDS011;50345;51.136;16.886;2022-09-01T03:22:05;4.78;;;2.80;;
6955;SDS011;50345;51.136;16.886;2022-09-01T03:24:31;7.60;;;2.92;;
6955;SDS011;50345;51.136;16.886;2022-09-01T03:26:58;4.45;;;2.63;;
6955;SDS011;50345;51.136;16.886;2022-09-01T03:29:25;3.90;;;3.50;;
6955;SDS011;50345;51.136;16.886;2022-09-01T03:31:51;5.05;;;2.63;;
6955;SDS011;50345;51.136;16.886;2022-09-01T03:34:17;3.25;;;2.95;;
6955;SDS011;50345;51.136;16.886;2022-09-01T03:36:45;5.70;;;3.67;;
6955;SDS011;50345;51.136;16.886;2022-09-01T03:39:15;2.60;;;2.40;;
6955;SDS011;50345;51.136;16.886;2022-09-01T03:41:42;3.75;;;3.08;;
6955;SDS011;50345;51.136;16.886;2022-09-01T03:44:09;5.00;;;2.78;;
6955;SDS011;50345;51.136;16.886;2022-09-01T03:46:37;6.32;;;2.80;;
6955;SDS011;50345;51.136;16.886;2022-09-01T03:49:04;4.50;;;2.75;;
6955;SDS011;50345;51.136;16.886;2022-09-01T03:51:32;4.38;;;3.20;;
6955;SDS011;50345;51.136;16.886;2022-09-01T03:53:58;4.55;;;2.70;;
6955;SDS011;50345;51.136;16.886;2022-09-01T03:56:25;3.97;;;3.08;;
6955;SDS011;50345;51.136;16.886;2022-09-01T03:58:53;4.18;;;3.20;;
6955;SDS011;50345;51.136;16.886;2022-09-01T04:01:20;5.05;;;3.13;;
6955;SDS011;50345;51.136;16.886;2022-09-01T04:03:46;2.95;;;2.75;;
6955;SDS011;50345;51.136;16.886;2022-09-01T04:06:13;4.50;;;2.70;;
6955;SDS011;50345;51.136;16.886;2022-09-01T04:08:39;4.07;;;2.70;;
6955;SDS011;50345;51.136;16.886;2022-09-01T04:11:12;4.25;;;2.80;;
6955;SDS011;50345;51.136;16.886;2022-09-01T04:13:39;4.97;;;3.10;;
6955;SDS011;50345;51.136;16.886;2022-09-01T04:16:06;3.05;;;2.75;;
6955;SDS011;50345;51.136;16.886;2022-09-01T04:18:34;8.25;;;3.13;;
6955;SDS011;50345;51.136;16.886;2022-09-01T04:21:00;5.53;;;2.88;;
6955;SDS011;50345;51.136;16.886;2022-09-01T04:23:28;3.25;;;2.63;;
6955;SDS011;50345;51.136;16.886;2022-09-01T04:25:56;3.25;;;2.90;;
6955;SDS011;50345;51.136;16.886;2022-09-01T04:28:24;3.97;;;2.75;;
6955;SDS011;50345;51.136;16.886;2022-09-01T04:30:52;4.00;;;3.22;;
6955;SDS011;50345;51.136;16.886;2022-09-01T04:33:20;3.38;;;3.17;;
6955;SDS011;50345;51.136;16.886;2022-09-01T04:35:47;6.10;;;2.95;;
6955;SDS011;50345;51.136;16.886;2022-09-01T04:38:14;2.58;;;2.40;;
6955;SDS011;50345;51.136;16.886;2022-09-01T04:40:41;2.95;;;2.65;;
6955;SDS011;50345;51.136;16.886;2022-09-01T04:43:07;3.28;;;2.75;;
6955;SDS011;50345;51.136;16.886;2022-09-01T04:45:34;3.13;;;2.30;;
6955;SDS011;50345;51.136;16.886;2022-09-01T04:48:03;3.75;;;2.97;;
6955;SDS011;50345;51.136;16.886;2022-09-01T04:50:30;3.83;;;2.70;;
6955;SDS011;50345;51.136;16.886;2022-09-01T04:53:00;3.28;;;2.80;;
6955;SDS011;50345;51.136;16.886;2022-09-01T04:55:29;4.15;;;2.75;;
6955;SDS011;50345;51.136;16.886;2022-09-01T04:57:56;2.75;;;2.50;;
6955;SDS011;50345;51.136;16.886;2022-09-01T05:00:23;3.45;;;2.75;;
6955;SDS011;50345;51.136;16.886;2022-09-01T05:05:17;5.50;;;3.03;;
6955;SDS011;50345;51.136;16.886;2022-09-01T05:07:43;3.90;;;2.72;;
6955;SDS011;50345;51.136;16.886;2022-09-01T05:10:09;3.13;;;2.60;;
6955;SDS011;50345;51.136;16.886;2022-09-01T05:12:35;8.52;;;3.35;;
6955;SDS011;50345;51.136;16.886;2022-09-01T05:15:01;6.33;;;3.90;;
6955;SDS011;50345;51.136;16.886;2022-09-01T05:17:30;6.22;;;2.95;;
6955;SDS011;50345;51.136;16.886;2022-09-01T05:19:57;5.65;;;3.28;;
6955;SDS011;50345;51.136;16.886;2022-09-01T05:22:23;3.92;;;3.30;;
6955;SDS011;50345;51.136;16.886;2022-09-01T05:24:50;6.85;;;2.63;;
6955;SDS011;50345;51.136;16.886;2022-09-01T05:27:17;3.97;;;2.63;;
6955;SDS011;50345;51.136;16.886;2022-09-01T05:29:44;6.75;;;3.63;;
6955;SDS011;50345;51.136;16.886;2022-09-01T05:32:11;4.30;;;2.95;;
6955;SDS011;50345;51.136;16.886;2022-09-01T05:34:37;3.53;;;2.75;;
6955;SDS011;50345;51.136;16.886;2022-09-01T05:37:04;5.22;;;3.33;;
6955;SDS011;50345;51.136;16.886;2022-09-01T05:39:32;4.00;;;2.58;;
6955;SDS011;50345;51.136;16.886;2022-09-01T05:42:00;3.40;;;2.65;;
6955;SDS011;50345;51.136;16.886;2022-09-01T05:44:31;5.57;;;3.00;;
6955;SDS011;50345;51.136;16.886;2022-09-01T05:46:57;5.20;;;2.80;;
6955;SDS011;50345;51.136;16.886;2022-09-01T05:49:24;3.47;;;3.05;;
6955;SDS011;50345;51.136;16.886;2022-09-01T05:51:50;6.20;;;2.70;;
6955;SDS011;50345;51.136;16.886;2022-09-01T05:54:17;3.10;;;2.80;;
6955;SDS011;50345;51.136;16.886;2022-09-01T05:56:45;6.53;;;2.80;;
6955;SDS011;50345;51.136;16.886;2022-09-01T05:59:11;4.75;;;3.05;;
6955;SDS011;50345;51.136;16.886;2022-09-01T06:01:39;3.85;;;2.75;;
6955;SDS011;50345;51.136;16.886;2022-09-01T06:04:05;2.45;;;2.20;;
6955;SDS011;50345;51.136;16.886;2022-09-01T06:06:50;12.90;;;3.13;;
6955;SDS011;50345;51.136;16.886;2022-09-01T06:09:17;5.43;;;2.40;;
6955;SDS011;50345;51.136;16.886;2022-09-01T06:11:45;3.17;;;2.85;;
6955;SDS011;50345;51.136;16.886;2022-09-01T06:14:15;3.60;;;2.85;;
6955;SDS011;50345;51.136;16.886;2022-09-01T06:16:41;2.85;;;2.10;;
6955;SDS011;50345;51.136;16.886;2022-09-01T06:19:07;3.25;;;2.95;;
6955;SDS011;50345;51.136;16.886;2022-09-01T06:21:34;2.53;;;2.33;;
6955;SDS011;50345;51.136;16.886;2022-09-01T06:24:00;4.50;;;2.63;;
6955;SDS011;50345;51.136;16.886;2022-09-01T06:26:31;3.65;;;2.75;;
6955;SDS011;50345;51.136;16.886;2022-09-01T06:28:59;2.55;;;2.13;;
6955;SDS011;50345;51.136;16.886;2022-09-01T06:31:28;7.63;;;3.03;;
6955;SDS011;50345;51.136;16.886;2022-09-01T06:33:58;4.70;;;3.35;;
6955;SDS011;50345;51.136;16.886;2022-09-01T06:36:24;3.65;;;2.70;;
6955;SDS011;50345;51.136;16.886;2022-09-01T06:38:51;2.95;;;2.72;;
6955;SDS011;50345;51.136;16.886;2022-09-01T06:41:18;5.72;;;2.85;;
6955;SDS011;50345;51.136;16.886;2022-09-01T06:43:48;3.10;;;2.70;;
6955;SDS011;50345;51.136;16.886;2022-09-01T06:46:16;4.30;;;2.93;;
6955;SDS011;50345;51.136;16.886;2022-09-01T06:48:43;3.45;;;2.63;;
6955;SDS011;50345;51.136;16.886;2022-09-01T06:51:13;2.30;;;2.20;;
6955;SDS011;50345;51.136;16.886;2022-09-01T06:53:41;3.10;;;2.80;;
6955;SDS011;50345;51.136;16.886;2022-09-01T06:56:07;3.10;;;2.50;;
6955;SDS011;50345;51.136;16.886;2022-09-01T06:58:37;2.77;;;2.57;;
6955;SDS011;50345;51.136;16.886;2022-09-01T07:01:05;7.17;;;3.40;;
6955;SDS011;50345;51.136;16.886;2022-09-01T07:03:31;2.53;;;2.13;;
6955;SDS011;50345;51.136;16.886;2022-09-01T07:05:58;2.40;;;2.00;;
6955;SDS011;50345;51.136;16.886;2022-09-01T07:08:24;5.20;;;2.70;;
6955;SDS011;50345;51.136;16.886;2022-09-01T07:10:50;6.53;;;3.10;;
6955;SDS011;50345;51.136;16.886;2022-09-01T07:13:20;3.37;;;2.17;;
6955;SDS011;50345;51.136;16.886;2022-09-01T07:15:51;2.60;;;2.40;;
6955;SDS011;50345;51.136;16.886;2022-09-01T07:18:22;2.60;;;2.40;;
6955;SDS011;50345;51.136;16.886;2022-09-01T07:20:49;2.43;;;1.90;;
6955;SDS011;50345;51.136;16.886;2022-09-01T07:23:17;7.60;;;2.23;;
6955;SDS011;50345;51.136;16.886;2022-09-01T07:25:45;2.20;;;2.10;;
6955;SDS011;50345;51.136;16.886;2022-09-01T07:28:12;2.90;;;2.23;;
6955;SDS011;50345;51.136;16.886;2022-09-01T07:30:39;2.27;;;2.07;;
6955;SDS011;50345;51.136;16.886;2022-09-01T07:33:06;4.37;;;2.37;;
6955;SDS011;50345;51.136;16.886;2022-09-01T07:35:35;3.60;;;2.10;;
6955;SDS011;50345;51.136;16.886;2022-09-01T07:38:02;5.60;;;2.30;;
6955;SDS011;50345;51.136;16.886;2022-09-01T07:40:29;6.70;;;2.30;;
6955;SDS011;50345;51.136;16.886;2022-09-01T07:42:55;2.53;;;2.17;;
6955;SDS011;50345;51.136;16.886;2022-09-01T07:45:21;3.30;;;2.40;;
6955;SDS011;50345;51.136;16.886;2022-09-01T07:47:49;4.60;;;2.50;;
6955;SDS011;50345;51.136;16.886;2022-09-01T07:50:15;4.50;;;2.00;;
6955;SDS011;50345;51.136;16.886;2022-09-01T07:52:42;4.37;;;2.83;;
6955;SDS011;50345;51.136;16.886;2022-09-01T07:55:09;2.67;;;2.13;;
6955;SDS011;50345;51.136;16.886;2022-09-01T07:57:36;3.00;;;1.70;;
6955;SDS011;50345;51.136;16.886;2022-09-01T08:00:03;5.00;;;2.03;;
6955;SDS011;50345;51.136;16.886;2022-09-01T08:02:29;2.03;;;1.60;;
6955;SDS011;50345;51.136;16.886;2022-09-01T08:04:56;1.90;;;1.80;;
6955;SDS011;50345;51.136;16.886;2022-09-01T08:07:23;2.80;;;1.80;;
6955;SDS011;50345;51.136;16.886;2022-09-01T08:09:49;2.27;;;1.90;;
6955;SDS011;50345;51.136;16.886;2022-09-01T08:12:15;2.90;;;1.60;;
6955;SDS011;50345;51.136;16.886;2022-09-01T08:14:41;1.93;;;1.40;;
6955;SDS011;50345;51.136;16.886;2022-09-01T08:17:07;1.73;;;1.60;;
6955;SDS011;50345;51.136;16.886;2022-09-01T08:19:33;1.87;;;1.70;;
6955;SDS011;50345;51.136;16.886;2022-09-01T08:22:00;2.47;;;1.30;;
6955;SDS011;50345;51.136;16.886;2022-09-01T08:24:26;3.60;;;1.77;;
6955;SDS011;50345;51.136;16.886;2022-09-01T08:26:52;2.60;;;1.10;;
6955;SDS011;50345;51.136;16.886;2022-09-01T08:29:18;1.87;;;1.37;;
6955;SDS011;50345;51.136;16.886;2022-09-01T08:31:45;2.37;;;1.50;;
6955;SDS011;50345;51.136;16.886;2022-09-01T08:34:11;2.80;;;1.40;;
6955;SDS011;50345;51.136;16.886;2022-09-01T08:36:37;2.37;;;1.23;;
6955;SDS011;50345;51.136;16.886;2022-09-01T08:39:03;1.60;;;1.50;;
6955;SDS011;50345;51.136;16.886;2022-09-01T08:46:38;1.23;;;1.13;;
6955;SDS011;50345;51.136;16.886;2022-09-01T08:49:07;2.37;;;1.40;;
6955;SDS011;50345;51.136;16.886;2022-09-01T08:51:42;2.90;;;1.20;;
6955;SDS011;50345;51.136;16.886;2022-09-01T08:56:56;1.60;;;1.50;;
6955;SDS011;50345;51.136;16.886;2022-09-01T08:59:23;2.73;;;1.37;;
6955;SDS011;50345;51.136;16.886;2022-09-01T09:07:22;3.13;;;1.50;;
6955;SDS011;50345;51.136;16.886;2022-09-01T09:09:53;1.53;;;1.30;;
6955;SDS011;50345;51.136;16.886;2022-09-01T09:12:29;1.93;;;0.87;;
6955;SDS011;50345;51.136;16.886;2022-09-01T09:17:27;3.30;;;1.43;;
6955;SDS011;50345;51.136;16.886;2022-09-01T09:19:54;5.47;;;1.50;;
6955;SDS011;50345;51.136;16.886;2022-09-01T09:22:21;2.30;;;1.30;;
6955;SDS011;50345;51.136;16.886;2022-09-01T09:24:51;2.90;;;1.30;;
6955;SDS011;50345;51.136;16.886;2022-09-01T09:29:48;1.87;;;1.77;;
6955;SDS011;50345;51.136;16.886;2022-09-01T09:32:16;4.83;;;1.60;;
6955;SDS011;50345;51.136;16.886;2022-09-01T09:34:42;3.40;;;1.73;;
6955;SDS011;50345;51.136;16.886;2022-09-01T09:37:25;1.40;;;1.07;;
6955;SDS011;50345;51.136;16.886;2022-09-01T09:42:26;1.40;;;1.10;;
6955;SDS011;50345;51.136;16.886;2022-09-01T09:44:52;2.53;;;1.60;;
6955;SDS011;50345;51.136;16.886;2022-09-01T09:50:10;1.13;;;1.03;;
6955;SDS011;50345;51.136;16.886;2022-09-01T09:52:37;2.70;;;0.90;;
6955;SDS011;50345;51.136;16.886;2022-09-01T09:55:04;3.20;;;1.50;;
6955;SDS011;50345;51.136;16.886;2022-09-01T09:57:31;2.33;;;1.20;;
6955;SDS011;50345;51.136;16.886;2022-09-01T10:00:07;2.23;;;1.33;;
6955;SDS011;50345;51.136;16.886;2022-09-01T10:02:44;1.90;;;1.10;;
6955;SDS011;50345;51.136;16.886;2022-09-01T10:07:52;2.30;;;1.30;;
6955;SDS011;50345;51.136;16.886;2022-09-01T10:12:54;1.20;;;1.10;;
6955;SDS011;50345;51.136;16.886;2022-09-01T10:15:23;1.40;;;1.30;;
6955;SDS011;50345;51.136;16.886;2022-09-01T10:17:50;3.43;;;1.30;;
6955;SDS011;50345;51.136;16.886;2022-09-01T10:20:21;2.00;;;1.10;;
6955;SDS011;50345;51.136;16.886;2022-09-01T10:22:48;1.27;;;1.10;;
6955;SDS011;50345;51.136;16.886;2022-09-01T10:25:22;1.30;;;1.20;;
6955;SDS011;50345;51.136;16.886;2022-09-01T10:30:52;1.10;;;1.03;;
6955;SDS011;50345;51.136;16.886;2022-09-01T10:33:19;1.80;;;1.10;;
6955;SDS011;50345;51.136;16.886;2022-09-01T10:35:47;1.30;;;1.20;;
6955;SDS011;50345;51.136;16.886;2022-09-01T10:38:24;1.80;;;1.20;;
6955;SDS011;50345;51.136;16.886;2022-09-01T10:40:52;1.77;;;1.10;;
6955;SDS011;50345;51.136;16.886;2022-09-01T10:43:38;1.23;;;1.10;;
6955;SDS011;50345;51.136;16.886;2022-09-01T10:48:42;1.83;;;1.17;;
6955;SDS011;50345;51.136;16.886;2022-09-01T10:53:41;1.43;;;1.03;;
6955;SDS011;50345;51.136;16.886;2022-09-01T11:04:14;1.47;;;1.20;;
6955;SDS011;50345;51.136;16.886;2022-09-01T11:09:15;0.80;;;0.80;;
6955;SDS011;50345;51.136;16.886;2022-09-01T11:14:27;1.10;;;0.90;;
6955;SDS011;50345;51.136;16.886;2022-09-01T11:19:45;1.20;;;1.00;;
6955;SDS011;50345;51.136;16.886;2022-09-01T11:27:09;1.40;;;0.80;;
6955;SDS011;50345;51.136;16.886;2022-09-01T11:29:55;2.00;;;1.30;;
6955;SDS011;50345;51.136;16.886;2022-09-01T11:32:26;3.57;;;1.10;;
6955;SDS011;50345;51.136;16.886;2022-09-01T11:34:56;1.60;;;1.13;;
6955;SDS011;50345;51.136;16.886;2022-09-01T11:37:23;1.90;;;0.93;;
6955;SDS011;50345;51.136;16.886;2022-09-01T11:39:51;1.23;;;1.07;;
6955;SDS011;50345;51.136;16.886;2022-09-01T11:42:26;1.40;;;1.03;;
6955;SDS011;50345;51.136;16.886;2022-09-01T11:47:32;1.00;;;0.90;;
6955;SDS011;50345;51.136;16.886;2022-09-01T11:50:03;1.20;;;1.10;;
6955;SDS011;50345;51.136;16.886;2022-09-01T11:52:31;1.20;;;0.90;;
6955;SDS011;50345;51.136;16.886;2022-09-01T11:54:58;0.83;;;0.80;;
6955;SDS011;50345;51.136;16.886;2022-09-01T11:59:58;0.97;;;0.87;;
6955;SDS011;50345;51.136;16.886;2022-09-01T12:02:26;1.23;;;1.13;;
6955;SDS011;50345;51.136;16.886;2022-09-01T12:04:54;1.33;;;0.90;;
6955;SDS011;50345;51.136;16.886;2022-09-01T12:07:25;1.10;;;1.00;;
6955;SDS011;50345;51.136;16.886;2022-09-01T12:09:52;1.03;;;0.93;;
6955;SDS011;50345;51.136;16.886;2022-09-01T12:12:35;0.90;;;0.90;;
6955;SDS011;50345;51.136;16.886;2022-09-01T12:15:10;1.27;;;1.07;;
6955;SDS011;50345;51.136;16.886;2022-09-01T12:17:42;2.90;;;0.90;;
6955;SDS011;50345;51.136;16.886;2022-09-01T12:22:49;2.00;;;1.13;;
6955;SDS011;50345;51.136;16.886;2022-09-01T12:25:23;1.70;;;0.80;;
6955;SDS011;50345;51.136;16.886;2022-09-01T12:27:50;3.33;;;1.07;;
6955;SDS011;50345;51.136;16.886;2022-09-01T12:30:17;0.90;;;0.80;;
6955;SDS011;50345;51.136;16.886;2022-09-01T12:32:43;1.70;;;0.87;;
6955;SDS011;50345;51.136;16.886;2022-09-01T12:35:20;1.93;;;1.13;;
6955;SDS011;50345;51.136;16.886;2022-09-01T12:37:47;2.17;;;1.10;;
6955;SDS011;50345;51.136;16.886;2022-09-01T12:43:11;1.20;;;1.10;;
6955;SDS011;50345;51.136;16.886;2022-09-01T12:45:51;1.10;;;0.80;;
6955;SDS011;50345;51.136;16.886;2022-09-01T12:48:31;2.50;;;0.90;;
6955;SDS011;50345;51.136;16.886;2022-09-01T12:50:58;1.17;;;0.80;;
6955;SDS011;50345;51.136;16.886;2022-09-01T12:53:26;0.70;;;0.70;;
6955;SDS011;50345;51.136;16.886;2022-09-01T12:58:25;0.80;;;0.80;;
6955;SDS011;50345;51.136;16.886;2022-09-01T13:00:55;1.67;;;0.83;;
6955;SDS011;50345;51.136;16.886;2022-09-01T13:03:22;1.37;;;0.90;;
6955;SDS011;50345;51.136;16.886;2022-09-01T13:05:55;2.50;;;1.00;;
6955;SDS011;50345;51.136;16.886;2022-09-01T13:08:24;1.20;;;0.90;;
6955;SDS011;50345;51.136;16.886;2022-09-01T13:10:54;1.17;;;1.00;;
6955;SDS011;50345;51.136;16.886;2022-09-01T13:13:21;1.43;;;0.80;;
6955;SDS011;50345;51.136;16.886;2022-09-01T13:15:49;1.30;;;0.90;;
6955;SDS011;50345;51.136;16.886;2022-09-01T13:18:16;1.80;;;1.10;;
6955;SDS011;50345;51.136;16.886;2022-09-01T13:20:43;0.87;;;0.87;;
6955;SDS011;50345;51.136;16.886;2022-09-01T13:23:09;3.90;;;0.90;;
6955;SDS011;50345;51.136;16.886;2022-09-01T13:25:36;0.80;;;0.80;;
6955;SDS011;50345;51.136;16.886;2022-09-01T13:28:04;1.00;;;0.90;;
6955;SDS011;50345;51.136;16.886;2022-09-01T13:30:30;2.10;;;1.00;;
6955;SDS011;50345;51.136;16.886;2022-09-01T13:32:57;0.90;;;0.80;;
6955;SDS011;50345;51.136;16.886;2022-09-01T13:35:23;1.90;;;1.00;;
6955;SDS011;50345;51.136;16.886;2022-09-01T13:37:50;1.33;;;0.90;;
6955;SDS011;50345;51.136;16.886;2022-09-01T13:40:16;1.90;;;1.03;;
6955;SDS011;50345;51.136;16.886;2022-09-01T13:42:43;0.80;;;0.80;;
6955;SDS011;50345;51.136;16.886;2022-09-01T13:45:10;2.17;;;1.10;;
6955;SDS011;50345;51.136;16.886;2022-09-01T13:47:37;1.50;;;1.00;;
6955;SDS011;50345;51.136;16.886;2022-09-01T13:50:04;1.67;;;1.10;;
6955;SDS011;50345;51.136;16.886;2022-09-01T13:52:30;2.20;;;0.90;;
6955;SDS011;50345;51.136;16.886;2022-09-01T13:54:56;0.90;;;0.90;;
6955;SDS011;50345;51.136;16.886;2022-09-01T13:57:22;1.97;;;1.40;;
6955;SDS011;50345;51.136;16.886;2022-09-01T13:59:48;1.30;;;1.20;;
6955;SDS011;50345;51.136;16.886;2022-09-01T14:02:15;0.90;;;0.90;;
6955;SDS011;50345;51.136;16.886;2022-09-01T14:04:41;1.83;;;1.27;;
6955;SDS011;50345;51.136;16.886;2022-09-01T14:07:07;2.80;;;1.07;;
6955;SDS011;50345;51.136;16.886;2022-09-01T14:09:33;1.07;;;0.97;;
6955;SDS011;50345;51.136;16.886;2022-09-01T14:11:59;1.50;;;0.80;;
6955;SDS011;50345;51.136;16.886;2022-09-01T14:14:25;0.90;;;0.90;;
6955;SDS011;50345;51.136;16.886;2022-09-01T14:16:51;3.40;;;3.10;;
6955;SDS011;50345;51.136;16.886;2022-09-01T14:19:17;2.40;;;1.20;;
6955;SDS011;50345;51.136;16.886;2022-09-01T14:21:43;1.67;;;0.90;;
6955;SDS011;50345;51.136;16.886;2022-09-01T14:24:11;1.17;;;1.07;;
6955;SDS011;50345;51.136;16.886;2022-09-01T14:26:37;0.93;;;0.80;;
6955;SDS011;50345;51.136;16.886;2022-09-01T14:29:03;1.50;;;1.13;;
6955;SDS011;50345;51.136;16.886;2022-09-01T14:31:29;0.80;;;0.80;;
6955;SDS011;50345;51.136;16.886;2022-09-01T14:33:55;0.80;;;0.80;;
6955;SDS011;50345;51.136;16.886;2022-09-01T14:36:22;0.90;;;0.80;;
6955;SDS011;50345;51.136;16.886;2022-09-01T14:38:49;1.27;;;0.87;;
6955;SDS011;50345;51.136;16.886;2022-09-01T14:41:16;1.20;;;0.90;;
6955;SDS011;50345;51.136;16.886;2022-09-01T14:43:47;1.73;;;1.07;;
6955;SDS011;50345;51.136;16.886;2022-09-01T14:46:14;1.07;;;0.90;;
6955;SDS011;50345;51.136;16.886;2022-09-01T14:48:40;1.47;;;1.00;;
6955;SDS011;50345;51.136;16.886;2022-09-01T14:51:06;1.47;;;0.90;;
6955;SDS011;50345;51.136;16.886;2022-09-01T14:53:33;1.07;;;0.97;;
6955;SDS011;50345;51.136;16.886;2022-09-01T14:55:59;0.80;;;0.80;;
6955;SDS011;50345;51.136;16.886;2022-09-01T14:58:26;0.90;;;0.90;;
6955;SDS011;50345;51.136;16.886;2022-09-01T15:00:53;0.90;;;0.90;;
6955;SDS011;50345;51.136;16.886;2022-09-01T15:03:20;2.10;;;1.47;;
6955;SDS011;50345;51.136;16.886;2022-09-01T15:05:46;3.20;;;2.90;;
6955;SDS011;50345;51.136;16.886;2022-09-01T15:08:13;1.80;;;1.70;;
6955;SDS011;50345;51.136;16.886;2022-09-01T15:10:40;2.57;;;1.60;;
6955;SDS011;50345;51.136;16.886;2022-09-01T15:13:06;4.33;;;4.00;;
6955;SDS011;50345;51.136;16.886;2022-09-01T15:15:32;1.30;;;1.20;;
6955;SDS011;50345;51.136;16.886;2022-09-01T15:17:59;1.73;;;1.00;;
6955;SDS011;50345;51.136;16.886;2022-09-01T15:20:25;1.60;;;1.20;;
6955;SDS011;50345;51.136;16.886;2022-09-01T15:23:13;1.30;;;1.20;;
6955;SDS011;50345;51.136;16.886;2022-09-01T15:25:40;2.30;;;1.90;;
6955;SDS011;50345;51.136;16.886;2022-09-01T15:28:06;1.97;;;1.30;;
6955;SDS011;50345;51.136;16.886;2022-09-01T15:30:33;4.20;;;1.20;;
6955;SDS011;50345;51.136;16.886;2022-09-01T15:32:59;1.93;;;1.00;;
6955;SDS011;50345;51.136;16.886;2022-09-01T15:35:26;1.10;;;0.80;;
6955;SDS011;50345;51.136;16.886;2022-09-01T15:37:53;2.23;;;1.20;;
6955;SDS011;50345;51.136;16.886;2022-09-01T15:40:21;1.10;;;0.93;;
6955;SDS011;50345;51.136;16.886;2022-09-01T15:42:48;1.20;;;0.80;;
6955;SDS011;50345;51.136;16.886;2022-09-01T15:45:15;2.00;;;1.80;;
6955;SDS011;50345;51.136;16.886;2022-09-01T15:47:42;1.20;;;0.97;;
6955;SDS011;50345;51.136;16.886;2022-09-01T15:50:09;1.20;;;1.10;;
6955;SDS011;50345;51.136;16.886;2022-09-01T15:52:47;1.00;;;0.90;;
6955;SDS011;50345;51.136;16.886;2022-09-01T15:55:14;1.33;;;1.00;;
6955;SDS011;50345;51.136;16.886;2022-09-01T15:57:40;6.87;;;1.27;;
6955;SDS011;50345;51.136;16.886;2022-09-01T16:00:06;3.80;;;1.20;;
6955;SDS011;50345;51.136;16.886;2022-09-01T16:02:32;7.70;;;1.37;;
6955;SDS011;50345;51.136;16.886;2022-09-01T16:04:58;12.63;;;1.70;;
6955;SDS011;50345;51.136;16.886;2022-09-01T16:07:24;2.60;;;1.00;;